sensor_id;sensor_type;location;lat;lon;timestamp;P1;durP1;ratioP1;P2;durP2;ratioP2
19587;SDS011;9940;47.252;8.696;2023-03-19T00:02:03;6.55;;;3.08;;
19587;SDS011;9940;47.252;8.696;2023-03-19T00:04:29;4.47;;;2.53;;
19587;SDS011;9940;47.252;8.696;2023-03-19T00:06:55;5.05;;;2.47;;
19587;SDS011;9940;47.252;8.696;2023-03-19T00:09:21;5.20;;;3.00;;
19587;SDS011;9940;47.252;8.696;2023-03-19T00:11:49;6.80;;;2.75;;
19587;SDS011;9940;47.252;8.696;2023-03-19T00:14:17;4.80;;;2.40;;
19587;SDS011;9940;47.252;8.696;2023-03-19T00:16:44;7.38;;;2.75;;
19587;SDS011;9940;47.252;8.696;2023-03-19T00:19:10;6.55;;;2.90;;
19587;SDS011;9940;47.252;8.696;2023-03-19T00:21:36;5.80;;;2.95;;
19587;SDS011;9940;47.252;8.696;2023-03-19T00:24:04;6.05;;;2.70;;
19587;SDS011;9940;47.252;8.696;2023-03-19T00:26:31;4.93;;;2.47;;
19587;SDS011;9940;47.252;8.696;2023-03-19T00:28:58;7.97;;;2.90;;
19587;SDS011;9940;47.252;8.696;2023-03-19T00:31:25;6.85;;;3.28;;
19587;SDS011;9940;47.252;8.696;2023-03-19T00:33:57;8.13;;;3.00;;
19587;SDS011;9940;47.252;8.696;2023-03-19T00:36:24;5.22;;;2.90;;
19587;SDS011;9940;47.252;8.696;2023-03-19T00:38:51;4.40;;;2.30;;
19587;SDS011;9940;47.252;8.696;2023-03-19T00:41:19;5.78;;;2.85;;
19587;SDS011;9940;47.252;8.696;2023-03-19T00:43:45;4.82;;;2.78;;
19587;SDS011;9940;47.252;8.696;2023-03-19T00:46:12;4.32;;;3.03;;
19587;SDS011;9940;47.252;8.696;2023-03-19T00:48:38;7.15;;;2.70;;
19587;SDS011;9940;47.252;8.696;2023-03-19T00:51:05;5.50;;;2.75;;
19587;SDS011;9940;47.252;8.696;2023-03-19T00:53:35;6.65;;;2.60;;
19587;SDS011;9940;47.252;8.696;2023-03-19T00:56:08;5.55;;;2.88;;
19587;SDS011;9940;47.252;8.696;2023-03-19T00:58:38;7.32;;;3.67;;
19587;SDS011;9940;47.252;8.696;2023-03-19T01:01:05;3.92;;;2.72;;
19587;SDS011;9940;47.252;8.696;2023-03-19T01:03:37;4.70;;;2.90;;
19587;SDS011;9940;47.252;8.696;2023-03-19T01:06:03;7.07;;;2.92;;
19587;SDS011;9940;47.252;8.696;2023-03-19T01:08:29;5.63;;;3.17;;
19587;SDS011;9940;47.252;8.696;2023-03-19T01:10:55;5.97;;;3.30;;
19587;SDS011;9940;47.252;8.696;2023-03-19T01:13:21;4.45;;;3.00;;
19587;SDS011;9940;47.252;8.696;2023-03-19T01:15:50;6.68;;;3.10;;
19587;SDS011;9940;47.252;8.696;2023-03-19T01:18:16;5.30;;;3.00;;
19587;SDS011;9940;47.252;8.696;2023-03-19T01:20:47;5.82;;;3.45;;
19587;SDS011;9940;47.252;8.696;2023-03-19T01:23:15;8.57;;;3.15;;
19587;SDS011;9940;47.252;8.696;2023-03-19T01:25:42;5.65;;;3.03;;
19587;SDS011;9940;47.252;8.696;2023-03-19T01:28:08;6.85;;;3.00;;
19587;SDS011;9940;47.252;8.696;2023-03-19T01:30:34;5.95;;;3.20;;
19587;SDS011;9940;47.252;8.696;2023-03-19T01:33:00;6.63;;;2.97;;
19587;SDS011;9940;47.252;8.696;2023-03-19T01:35:28;6.20;;;2.78;;
19587;SDS011;9940;47.252;8.696;2023-03-19T01:37:56;4.88;;;3.20;;
19587;SDS011;9940;47.252;8.696;2023-03-19T01:40:21;5.43;;;3.17;;
19587;SDS011;9940;47.252;8.696;2023-03-19T01:43:30;6.30;;;3.50;;
19587;SDS011;9940;47.252;8.696;2023-03-19T01:45:40;6.57;;;3.30;;
19587;SDS011;9940;47.252;8.696;2023-03-19T01:48:49;8.27;;;3.25;;
19587;SDS011;9940;47.252;8.696;2023-03-19T01:50:55;7.10;;;3.20;;
19587;SDS011;9940;47.252;8.696;2023-03-19T01:53:24;6.55;;;3.38;;
19587;SDS011;9940;47.252;8.696;2023-03-19T01:55:56;7.70;;;3.42;;
19587;SDS011;9940;47.252;8.696;2023-03-19T01:58:26;8.40;;;3.50;;
19587;SDS011;9940;47.252;8.696;2023-03-19T02:00:56;5.28;;;3.20;;
19587;SDS011;9940;47.252;8.696;2023-03-19T02:03:25;7.22;;;3.13;;
19587;SDS011;9940;47.252;8.696;2023-03-19T02:05:51;6.40;;;3.05;;
19587;SDS011;9940;47.252;8.696;2023-03-19T02:08:22;7.77;;;3.20;;
19587;SDS011;9940;47.252;8.696;2023-03-19T02:10:52;7.47;;;3.38;;
19587;SDS011;9940;47.252;8.696;2023-03-19T02:13:22;9.48;;;3.00;;
19587;SDS011;9940;47.252;8.696;2023-03-19T02:15:48;5.45;;;3.10;;
19587;SDS011;9940;47.252;8.696;2023-03-19T02:18:15;6.75;;;3.60;;
19587;SDS011;9940;47.252;8.696;2023-03-19T02:25:50;6.20;;;3.03;;
19587;SDS011;9940;47.252;8.696;2023-03-19T02:28:24;6.82;;;3.13;;
19587;SDS011;9940;47.252;8.696;2023-03-19T02:30:50;8.55;;;2.92;;
19587;SDS011;9940;47.252;8.696;2023-03-19T02:33:19;7.80;;;3.05;;
19587;SDS011;9940;47.252;8.696;2023-03-19T02:35:47;6.75;;;3.20;;
19587;SDS011;9940;47.252;8.696;2023-03-19T02:38:15;6.95;;;3.17;;
19587;SDS011;9940;47.252;8.696;2023-03-19T02:40:47;7.68;;;3.42;;
19587;SDS011;9940;47.252;8.696;2023-03-19T02:43:16;9.35;;;3.97;;
19587;SDS011;9940;47.252;8.696;2023-03-19T02:45:44;6.38;;;3.15;;
19587;SDS011;9940;47.252;8.696;2023-03-19T02:48:10;5.93;;;3.03;;
19587;SDS011;9940;47.252;8.696;2023-03-19T02:50:35;8.10;;;3.47;;
19587;SDS011;9940;47.252;8.696;2023-03-19T02:53:01;7.15;;;3.80;;
19587;SDS011;9940;47.252;8.696;2023-03-19T02:55:27;8.65;;;4.15;;
19587;SDS011;9940;47.252;8.696;2023-03-19T02:57:52;7.68;;;3.90;;
19587;SDS011;9940;47.252;8.696;2023-03-19T03:00:20;5.00;;;3.40;;
19587;SDS011;9940;47.252;8.696;2023-03-19T03:02:48;6.82;;;3.60;;
19587;SDS011;9940;47.252;8.696;2023-03-19T03:05:14;6.88;;;3.50;;
19587;SDS011;9940;47.252;8.696;2023-03-19T03:07:39;6.00;;;3.10;;
19587;SDS011;9940;47.252;8.696;2023-03-19T03:10:11;3.75;;;2.22;;
19587;SDS011;9940;47.252;8.696;2023-03-19T03:12:37;4.97;;;2.25;;
19587;SDS011;9940;47.252;8.696;2023-03-19T03:15:09;3.80;;;1.98;;
19587;SDS011;9940;47.252;8.696;2023-03-19T03:17:36;3.95;;;2.30;;
19587;SDS011;9940;47.252;8.696;2023-03-19T03:20:03;6.90;;;2.25;;
19587;SDS011;9940;47.252;8.696;2023-03-19T03:22:30;4.60;;;2.15;;
19587;SDS011;9940;47.252;8.696;2023-03-19T03:24:56;5.00;;;2.20;;
19587;SDS011;9940;47.252;8.696;2023-03-19T03:27:22;6.20;;;2.55;;
19587;SDS011;9940;47.252;8.696;2023-03-19T03:29:48;5.82;;;2.20;;
19587;SDS011;9940;47.252;8.696;2023-03-19T03:32:16;5.10;;;2.05;;
19587;SDS011;9940;47.252;8.696;2023-03-19T03:34:43;4.55;;;2.17;;
19587;SDS011;9940;47.252;8.696;2023-03-19T03:37:10;4.80;;;2.22;;
19587;SDS011;9940;47.252;8.696;2023-03-19T03:39:36;7.85;;;2.33;;
19587;SDS011;9940;47.252;8.696;2023-03-19T03:42:04;6.10;;;2.28;;
19587;SDS011;9940;47.252;8.696;2023-03-19T03:44:32;4.68;;;1.80;;
19587;SDS011;9940;47.252;8.696;2023-03-19T03:47:01;3.90;;;1.90;;
19587;SDS011;9940;47.252;8.696;2023-03-19T03:49:27;5.57;;;1.88;;
19587;SDS011;9940;47.252;8.696;2023-03-19T03:51:55;5.45;;;2.10;;
19587;SDS011;9940;47.252;8.696;2023-03-19T03:54:23;6.13;;;2.25;;
19587;SDS011;9940;47.252;8.696;2023-03-19T03:56:49;5.15;;;2.00;;
19587;SDS011;9940;47.252;8.696;2023-03-19T03:59:17;6.22;;;2.00;;
19587;SDS011;9940;47.252;8.696;2023-03-19T04:01:42;5.18;;;2.25;;
19587;SDS011;9940;47.252;8.696;2023-03-19T04:04:08;6.35;;;2.35;;
19587;SDS011;9940;47.252;8.696;2023-03-19T04:06:36;5.97;;;2.42;;
19587;SDS011;9940;47.252;8.696;2023-03-19T04:09:02;6.57;;;2.22;;
19587;SDS011;9940;47.252;8.696;2023-03-19T04:11:27;4.80;;;2.15;;
19587;SDS011;9940;47.252;8.696;2023-03-19T04:13:54;5.07;;;1.85;;
19587;SDS011;9940;47.252;8.696;2023-03-19T04:16:21;7.75;;;2.28;;
19587;SDS011;9940;47.252;8.696;2023-03-19T04:18:47;4.93;;;2.30;;
19587;SDS011;9940;47.252;8.696;2023-03-19T04:21:15;4.82;;;2.28;;
19587;SDS011;9940;47.252;8.696;2023-03-19T04:23:41;6.40;;;2.75;;
19587;SDS011;9940;47.252;8.696;2023-03-19T04:26:07;4.78;;;2.17;;
19587;SDS011;9940;47.252;8.696;2023-03-19T04:28:33;5.35;;;1.95;;
19587;SDS011;9940;47.252;8.696;2023-03-19T04:31:02;4.65;;;2.10;;
19587;SDS011;9940;47.252;8.696;2023-03-19T04:33:29;6.95;;;2.00;;
19587;SDS011;9940;47.252;8.696;2023-03-19T04:35:56;4.65;;;1.90;;
19587;SDS011;9940;47.252;8.696;2023-03-19T04:38:22;6.88;;;2.03;;
19587;SDS011;9940;47.252;8.696;2023-03-19T04:40:50;6.03;;;2.20;;
19587;SDS011;9940;47.252;8.696;2023-03-19T04:43:16;4.38;;;1.98;;
19587;SDS011;9940;47.252;8.696;2023-03-19T04:45:45;4.85;;;2.10;;
19587;SDS011;9940;47.252;8.696;2023-03-19T04:48:13;4.30;;;2.05;;
19587;SDS011;9940;47.252;8.696;2023-03-19T04:50:39;4.40;;;1.98;;
19587;SDS011;9940;47.252;8.696;2023-03-19T04:53:05;7.25;;;1.95;;
19587;SDS011;9940;47.252;8.696;2023-03-19T04:55:30;3.35;;;1.88;;
19587;SDS011;9940;47.252;8.696;2023-03-19T04:57:58;5.28;;;1.98;;
19587;SDS011;9940;47.252;8.696;2023-03-19T05:00:26;4.72;;;1.90;;
19587;SDS011;9940;47.252;8.696;2023-03-19T05:02:54;4.45;;;1.70;;
19587;SDS011;9940;47.252;8.696;2023-03-19T05:05:20;3.17;;;1.75;;
19587;SDS011;9940;47.252;8.696;2023-03-19T05:07:46;6.43;;;2.25;;
19587;SDS011;9940;47.252;8.696;2023-03-19T05:10:14;3.67;;;1.75;;
19587;SDS011;9940;47.252;8.696;2023-03-19T05:12:39;4.13;;;2.40;;
19587;SDS011;9940;47.252;8.696;2023-03-19T05:15:05;4.88;;;2.25;;
19587;SDS011;9940;47.252;8.696;2023-03-19T05:17:31;7.18;;;2.30;;
19587;SDS011;9940;47.252;8.696;2023-03-19T05:19:57;5.75;;;2.10;;
19587;SDS011;9940;47.252;8.696;2023-03-19T05:22:23;6.13;;;2.55;;
19587;SDS011;9940;47.252;8.696;2023-03-19T05:24:51;5.00;;;2.08;;
19587;SDS011;9940;47.252;8.696;2023-03-19T05:27:17;4.70;;;2.20;;
19587;SDS011;9940;47.252;8.696;2023-03-19T05:29:42;5.03;;;2.03;;
19587;SDS011;9940;47.252;8.696;2023-03-19T05:32:10;4.57;;;2.47;;
19587;SDS011;9940;47.252;8.696;2023-03-19T05:34:36;3.47;;;2.10;;
19587;SDS011;9940;47.252;8.696;2023-03-19T05:37:04;4.88;;;2.15;;
19587;SDS011;9940;47.252;8.696;2023-03-19T05:39:30;4.00;;;2.05;;
19587;SDS011;9940;47.252;8.696;2023-03-19T05:41:56;3.88;;;1.88;;
19587;SDS011;9940;47.252;8.696;2023-03-19T05:44:24;4.28;;;1.95;;
19587;SDS011;9940;47.252;8.696;2023-03-19T05:46:49;5.63;;;2.10;;
19587;SDS011;9940;47.252;8.696;2023-03-19T05:49:18;4.93;;;2.25;;
19587;SDS011;9940;47.252;8.696;2023-03-19T05:51:43;3.80;;;2.33;;
19587;SDS011;9940;47.252;8.696;2023-03-19T05:54:09;4.35;;;2.30;;
19587;SDS011;9940;47.252;8.696;2023-03-19T05:56:35;4.75;;;2.30;;
19587;SDS011;9940;47.252;8.696;2023-03-19T05:59:02;5.90;;;2.00;;
19587;SDS011;9940;47.252;8.696;2023-03-19T06:01:28;4.38;;;2.45;;
19587;SDS011;9940;47.252;8.696;2023-03-19T06:03:57;3.58;;;1.80;;
19587;SDS011;9940;47.252;8.696;2023-03-19T06:06:25;6.28;;;2.30;;
19587;SDS011;9940;47.252;8.696;2023-03-19T06:08:50;3.25;;;1.90;;
19587;SDS011;9940;47.252;8.696;2023-03-19T06:11:35;5.22;;;2.20;;
19587;SDS011;9940;47.252;8.696;2023-03-19T06:14:03;3.15;;;2.05;;
19587;SDS011;9940;47.252;8.696;2023-03-19T06:16:29;4.40;;;2.38;;
19587;SDS011;9940;47.252;8.696;2023-03-19T06:18:57;4.88;;;2.45;;
19587;SDS011;9940;47.252;8.696;2023-03-19T06:21:23;5.38;;;2.33;;
19587;SDS011;9940;47.252;8.696;2023-03-19T06:23:53;3.58;;;2.42;;
19587;SDS011;9940;47.252;8.696;2023-03-19T06:26:25;4.10;;;2.22;;
19587;SDS011;9940;47.252;8.696;2023-03-19T06:28:51;7.70;;;2.22;;
19587;SDS011;9940;47.252;8.696;2023-03-19T06:31:17;2.95;;;1.92;;
19587;SDS011;9940;47.252;8.696;2023-03-19T06:33:43;5.00;;;2.47;;
19587;SDS011;9940;47.252;8.696;2023-03-19T06:36:09;4.53;;;1.90;;
19587;SDS011;9940;47.252;8.696;2023-03-19T06:38:34;5.82;;;2.50;;
19587;SDS011;9940;47.252;8.696;2023-03-19T06:41:00;4.13;;;2.15;;
19587;SDS011;9940;47.252;8.696;2023-03-19T06:43:26;5.22;;;2.53;;
19587;SDS011;9940;47.252;8.696;2023-03-19T06:45:57;4.10;;;2.30;;
19587;SDS011;9940;47.252;8.696;2023-03-19T06:48:23;3.25;;;2.10;;
19587;SDS011;9940;47.252;8.696;2023-03-19T06:50:49;6.07;;;2.08;;
19587;SDS011;9940;47.252;8.696;2023-03-19T06:53:15;3.38;;;2.40;;
19587;SDS011;9940;47.252;8.696;2023-03-19T06:55:44;4.03;;;2.33;;
19587;SDS011;9940;47.252;8.696;2023-03-19T06:58:10;4.10;;;2.05;;
19587;SDS011;9940;47.252;8.696;2023-03-19T07:00:36;4.70;;;2.30;;
19587;SDS011;9940;47.252;8.696;2023-03-19T07:03:04;8.45;;;2.35;;
19587;SDS011;9940;47.252;8.696;2023-03-19T07:05:33;5.55;;;2.28;;
19587;SDS011;9940;47.252;8.696;2023-03-19T07:07:59;4.60;;;2.53;;
19587;SDS011;9940;47.252;8.696;2023-03-19T07:10:25;6.30;;;3.00;;
19587;SDS011;9940;47.252;8.696;2023-03-19T07:12:53;6.55;;;2.58;;
19587;SDS011;9940;47.252;8.696;2023-03-19T07:15:21;6.30;;;2.83;;
19587;SDS011;9940;47.252;8.696;2023-03-19T07:17:47;7.68;;;2.72;;
19587;SDS011;9940;47.252;8.696;2023-03-19T07:20:13;4.32;;;2.50;;
19587;SDS011;9940;47.252;8.696;2023-03-19T07:22:40;3.95;;;2.58;;
19587;SDS011;9940;47.252;8.696;2023-03-19T07:25:06;4.13;;;2.75;;
19587;SDS011;9940;47.252;8.696;2023-03-19T07:27:32;6.97;;;3.10;;
19587;SDS011;9940;47.252;8.696;2023-03-19T07:29:57;6.03;;;2.83;;
19587;SDS011;9940;47.252;8.696;2023-03-19T07:32:23;6.75;;;2.85;;
19587;SDS011;9940;47.252;8.696;2023-03-19T07:34:49;5.10;;;2.28;;
19587;SDS011;9940;47.252;8.696;2023-03-19T07:37:15;4.78;;;2.80;;
19587;SDS011;9940;47.252;8.696;2023-03-19T07:39:43;4.05;;;2.65;;
19587;SDS011;9940;47.252;8.696;2023-03-19T07:42:08;5.28;;;2.58;;
19587;SDS011;9940;47.252;8.696;2023-03-19T07:44:36;5.47;;;3.10;;
19587;SDS011;9940;47.252;8.696;2023-03-19T07:47:02;5.72;;;2.25;;
19587;SDS011;9940;47.252;8.696;2023-03-19T07:49:28;3.47;;;2.28;;
19587;SDS011;9940;47.252;8.696;2023-03-19T07:51:55;4.57;;;2.65;;
19587;SDS011;9940;47.252;8.696;2023-03-19T07:54:21;3.88;;;2.63;;
19587;SDS011;9940;47.252;8.696;2023-03-19T07:56:49;3.65;;;2.55;;
19587;SDS011;9940;47.252;8.696;2023-03-19T07:59:17;5.63;;;2.42;;
19587;SDS011;9940;47.252;8.696;2023-03-19T08:01:42;3.67;;;2.47;;
19587;SDS011;9940;47.252;8.696;2023-03-19T08:04:11;3.92;;;2.55;;
19587;SDS011;9940;47.252;8.696;2023-03-19T08:06:37;4.68;;;2.35;;
19587;SDS011;9940;47.252;8.696;2023-03-19T08:09:05;3.63;;;2.10;;
19587;SDS011;9940;47.252;8.696;2023-03-19T08:11:31;5.70;;;2.28;;
19587;SDS011;9940;47.252;8.696;2023-03-19T08:13:56;3.80;;;2.30;;
19587;SDS011;9940;47.252;8.696;2023-03-19T08:16:22;4.85;;;2.40;;
19587;SDS011;9940;47.252;8.696;2023-03-19T08:18:48;7.35;;;2.33;;
19587;SDS011;9940;47.252;8.696;2023-03-19T08:21:14;4.03;;;2.13;;
19587;SDS011;9940;47.252;8.696;2023-03-19T08:23:42;5.07;;;1.83;;
19587;SDS011;9940;47.252;8.696;2023-03-19T08:26:08;5.75;;;2.10;;
19587;SDS011;9940;47.252;8.696;2023-03-19T08:28:33;7.25;;;2.13;;
19587;SDS011;9940;47.252;8.696;2023-03-19T08:31:09;5.35;;;2.05;;
19587;SDS011;9940;47.252;8.696;2023-03-19T08:33:39;5.43;;;2.45;;
19587;SDS011;9940;47.252;8.696;2023-03-19T08:36:11;4.03;;;2.28;;
19587;SDS011;9940;47.252;8.696;2023-03-19T08:38:37;3.85;;;2.95;;
19587;SDS011;9940;47.252;8.696;2023-03-19T08:41:04;5.03;;;2.72;;
19587;SDS011;9940;47.252;8.696;2023-03-19T08:43:31;4.93;;;2.53;;
19587;SDS011;9940;47.252;8.696;2023-03-19T08:45:58;3.60;;;2.50;;
19587;SDS011;9940;47.252;8.696;2023-03-19T08:48:24;5.13;;;3.15;;
19587;SDS011;9940;47.252;8.696;2023-03-19T08:50:54;4.15;;;2.10;;
19587;SDS011;9940;47.252;8.696;2023-03-19T08:53:22;5.13;;;2.25;;
19587;SDS011;9940;47.252;8.696;2023-03-19T08:55:51;3.92;;;2.30;;
19587;SDS011;9940;47.252;8.696;2023-03-19T08:58:18;4.50;;;2.70;;
19587;SDS011;9940;47.252;8.696;2023-03-19T09:00:45;5.60;;;3.00;;
19587;SDS011;9940;47.252;8.696;2023-03-19T09:03:11;5.60;;;2.65;;
19587;SDS011;9940;47.252;8.696;2023-03-19T09:05:39;5.40;;;2.65;;
19587;SDS011;9940;47.252;8.696;2023-03-19T09:08:07;3.78;;;2.38;;
19587;SDS011;9940;47.252;8.696;2023-03-19T09:10:34;4.55;;;2.40;;
19587;SDS011;9940;47.252;8.696;2023-03-19T09:12:59;4.85;;;2.63;;
19587;SDS011;9940;47.252;8.696;2023-03-19T09:15:25;3.95;;;2.67;;
19587;SDS011;9940;47.252;8.696;2023-03-19T09:17:52;4.38;;;2.70;;
19587;SDS011;9940;47.252;8.696;2023-03-19T09:20:19;4.35;;;2.90;;
19587;SDS011;9940;47.252;8.696;2023-03-19T09:22:45;3.95;;;2.63;;
19587;SDS011;9940;47.252;8.696;2023-03-19T09:25:11;4.90;;;2.67;;
19587;SDS011;9940;47.252;8.696;2023-03-19T09:27:37;3.35;;;2.28;;
19587;SDS011;9940;47.252;8.696;2023-03-19T09:30:03;4.53;;;2.92;;
19587;SDS011;9940;47.252;8.696;2023-03-19T09:32:29;6.50;;;2.78;;
19587;SDS011;9940;47.252;8.696;2023-03-19T09:34:55;5.32;;;2.90;;
19587;SDS011;9940;47.252;8.696;2023-03-19T09:37:21;4.95;;;2.78;;
19587;SDS011;9940;47.252;8.696;2023-03-19T09:39:49;6.13;;;2.50;;
19587;SDS011;9940;47.252;8.696;2023-03-19T09:45:11;3.63;;;2.20;;
19587;SDS011;9940;47.252;8.696;2023-03-19T09:47:42;5.15;;;2.25;;
19587;SDS011;9940;47.252;8.696;2023-03-19T09:52:46;6.28;;;2.80;;
19587;SDS011;9940;47.252;8.696;2023-03-19T09:58:17;4.00;;;2.00;;
19587;SDS011;9940;47.252;8.696;2023-03-19T10:00:49;4.50;;;2.40;;
19587;SDS011;9940;47.252;8.696;2023-03-19T10:17:04;2.13;;;1.63;;
19587;SDS011;9940;47.252;8.696;2023-03-19T10:19:56;2.30;;;1.92;;
19587;SDS011;9940;47.252;8.696;2023-03-19T10:22:31;1.98;;;1.77;;
19587;SDS011;9940;47.252;8.696;2023-03-19T10:25:10;2.33;;;2.00;;
19587;SDS011;9940;47.252;8.696;2023-03-19T10:27:52;3.53;;;1.75;;
19587;SDS011;9940;47.252;8.696;2023-03-19T10:30:22;4.65;;;2.25;;
19587;SDS011;9940;47.252;8.696;2023-03-19T10:33:04;2.33;;;2.10;;
19587;SDS011;9940;47.252;8.696;2023-03-19T10:35:43;2.90;;;1.70;;
19587;SDS011;9940;47.252;8.696;2023-03-19T10:38:19;1.67;;;1.58;;
19587;SDS011;9940;47.252;8.696;2023-03-19T10:43:55;2.70;;;2.50;;
19587;SDS011;9940;47.252;8.696;2023-03-19T10:46:25;2.28;;;2.08;;
19587;SDS011;9940;47.252;8.696;2023-03-19T10:48:50;2.58;;;2.33;;
19587;SDS011;9940;47.252;8.696;2023-03-19T10:51:22;4.07;;;3.45;;
19587;SDS011;9940;47.252;8.696;2023-03-19T10:58:54;1.98;;;1.80;;
19587;SDS011;9940;47.252;8.696;2023-03-19T11:01:26;1.77;;;1.65;;
19587;SDS011;9940;47.252;8.696;2023-03-19T11:04:01;5.10;;;1.75;;
19587;SDS011;9940;47.252;8.696;2023-03-19T11:06:35;2.95;;;1.73;;
19587;SDS011;9940;47.252;8.696;2023-03-19T11:11:41;4.35;;;2.30;;
19587;SDS011;9940;47.252;8.696;2023-03-19T11:17:04;3.40;;;2.33;;
19587;SDS011;9940;47.252;8.696;2023-03-19T11:19:56;2.95;;;1.73;;
19587;SDS011;9940;47.252;8.696;2023-03-19T11:22:27;2.95;;;1.92;;
19587;SDS011;9940;47.252;8.696;2023-03-19T11:25:06;2.95;;;2.25;;
19587;SDS011;9940;47.252;8.696;2023-03-19T11:27:42;3.88;;;1.75;;
19587;SDS011;9940;47.252;8.696;2023-03-19T11:30:16;4.07;;;2.00;;
19587;SDS011;9940;47.252;8.696;2023-03-19T11:38:14;2.33;;;2.08;;
19587;SDS011;9940;47.252;8.696;2023-03-19T11:40:56;3.00;;;1.73;;
19587;SDS011;9940;47.252;8.696;2023-03-19T11:43:42;1.83;;;1.50;;
19587;SDS011;9940;47.252;8.696;2023-03-19T11:51:50;3.42;;;2.22;;
19587;SDS011;9940;47.252;8.696;2023-03-19T11:57:08;3.08;;;1.90;;
19587;SDS011;9940;47.252;8.696;2023-03-19T11:59:45;3.42;;;1.80;;
19587;SDS011;9940;47.252;8.696;2023-03-19T12:04:57;4.37;;;2.20;;
19587;SDS011;9940;47.252;8.696;2023-03-19T12:23:39;2.25;;;2.00;;
19587;SDS011;9940;47.252;8.696;2023-03-19T12:40:12;2.38;;;1.63;;
19587;SDS011;9940;47.252;8.696;2023-03-19T12:42:48;3.72;;;2.25;;
19587;SDS011;9940;47.252;8.696;2023-03-19T12:45:39;5.07;;;2.20;;
19587;SDS011;9940;47.252;8.696;2023-03-19T12:50:58;3.75;;;1.75;;
19587;SDS011;9940;47.252;8.696;2023-03-19T12:56:19;5.18;;;1.88;;
19587;SDS011;9940;47.252;8.696;2023-03-19T12:59:16;2.83;;;2.05;;
19587;SDS011;9940;47.252;8.696;2023-03-19T13:04:49;4.63;;;1.92;;
19587;SDS011;9940;47.252;8.696;2023-03-19T13:07:27;4.05;;;2.28;;
19587;SDS011;9940;47.252;8.696;2023-03-19T13:10:18;2.95;;;1.95;;
19587;SDS011;9940;47.252;8.696;2023-03-19T13:12:46;1.80;;;1.70;;
19587;SDS011;9940;47.252;8.696;2023-03-19T13:23:32;2.75;;;2.10;;
19587;SDS011;9940;47.252;8.696;2023-03-19T13:26:01;13.70;;;2.70;;
19587;SDS011;9940;47.252;8.696;2023-03-19T13:28:33;4.82;;;2.50;;
19587;SDS011;9940;47.252;8.696;2023-03-19T13:33:34;4.53;;;2.28;;
19587;SDS011;9940;47.252;8.696;2023-03-19T13:36:04;3.65;;;2.47;;
19587;SDS011;9940;47.252;8.696;2023-03-19T13:46:45;2.80;;;2.40;;
19587;SDS011;9940;47.252;8.696;2023-03-19T13:49:24;5.55;;;2.28;;
19587;SDS011;9940;47.252;8.696;2023-03-19T13:51:59;3.80;;;2.40;;
19587;SDS011;9940;47.252;8.696;2023-03-19T13:54:50;3.95;;;2.72;;
19587;SDS011;9940;47.252;8.696;2023-03-19T13:57:19;4.85;;;2.50;;
19587;SDS011;9940;47.252;8.696;2023-03-19T13:59:56;3.83;;;2.25;;
19587;SDS011;9940;47.252;8.696;2023-03-19T14:03:00;3.00;;;2.70;;
19587;SDS011;9940;47.252;8.696;2023-03-19T14:05:31;3.95;;;2.45;;
19587;SDS011;9940;47.252;8.696;2023-03-19T14:07:58;5.13;;;2.80;;
19587;SDS011;9940;47.252;8.696;2023-03-19T14:10:27;4.30;;;2.63;;
19587;SDS011;9940;47.252;8.696;2023-03-19T14:13:07;5.18;;;2.40;;
19587;SDS011;9940;47.252;8.696;2023-03-19T14:15:47;3.70;;;2.47;;
19587;SDS011;9940;47.252;8.696;2023-03-19T14:18:16;2.72;;;2.45;;
19587;SDS011;9940;47.252;8.696;2023-03-19T14:20:58;5.53;;;2.90;;
19587;SDS011;9940;47.252;8.696;2023-03-19T14:23:29;3.45;;;3.08;;
19587;SDS011;9940;47.252;8.696;2023-03-19T14:26:04;5.22;;;3.25;;
19587;SDS011;9940;47.252;8.696;2023-03-19T14:34:20;6.22;;;3.05;;
19587;SDS011;9940;47.252;8.696;2023-03-19T14:39:49;6.68;;;3.20;;
19587;SDS011;9940;47.252;8.696;2023-03-19T14:45:42;5.85;;;3.50;;
19587;SDS011;9940;47.252;8.696;2023-03-19T14:50:56;5.03;;;3.53;;
19587;SDS011;9940;47.252;8.696;2023-03-19T14:56:34;4.35;;;2.75;;
19587;SDS011;9940;47.252;8.696;2023-03-19T14:59:01;6.57;;;2.50;;
19587;SDS011;9940;47.252;8.696;2023-03-19T15:01:32;3.22;;;2.28;;
19587;SDS011;9940;47.252;8.696;2023-03-19T15:04:02;8.00;;;2.95;;
19587;SDS011;9940;47.252;8.696;2023-03-19T15:06:41;4.55;;;2.08;;
19587;SDS011;9940;47.252;8.696;2023-03-19T15:09:23;4.53;;;1.88;;
19587;SDS011;9940;47.252;8.696;2023-03-19T15:14:40;4.90;;;2.30;;
19587;SDS011;9940;47.252;8.696;2023-03-19T15:17:49;5.07;;;2.00;;
19587;SDS011;9940;47.252;8.696;2023-03-19T15:20:23;3.45;;;1.98;;
19587;SDS011;9940;47.252;8.696;2023-03-19T15:22:58;2.47;;;2.00;;
19587;SDS011;9940;47.252;8.696;2023-03-19T15:25:28;4.85;;;1.90;;
19587;SDS011;9940;47.252;8.696;2023-03-19T15:28:07;3.85;;;2.47;;
19587;SDS011;9940;47.252;8.696;2023-03-19T15:30:35;8.70;;;2.38;;
19587;SDS011;9940;47.252;8.696;2023-03-19T15:33:01;5.03;;;2.22;;
19587;SDS011;9940;47.252;8.696;2023-03-19T15:35:33;2.08;;;1.75;;
19587;SDS011;9940;47.252;8.696;2023-03-19T15:38:01;3.70;;;2.13;;
19587;SDS011;9940;47.252;8.696;2023-03-19T15:40:32;6.47;;;2.47;;
19587;SDS011;9940;47.252;8.696;2023-03-19T15:43:00;4.70;;;2.10;;
19587;SDS011;9940;47.252;8.696;2023-03-19T15:45:29;3.13;;;1.90;;
19587;SDS011;9940;47.252;8.696;2023-03-19T15:50:33;4.05;;;1.98;;
19587;SDS011;9940;47.252;8.696;2023-03-19T15:53:09;4.30;;;2.50;;
19587;SDS011;9940;47.252;8.696;2023-03-19T15:55:40;5.03;;;2.65;;
19587;SDS011;9940;47.252;8.696;2023-03-19T15:58:14;3.10;;;2.38;;
19587;SDS011;9940;47.252;8.696;2023-03-19T16:00:43;3.58;;;2.38;;
19587;SDS011;9940;47.252;8.696;2023-03-19T16:03:16;3.28;;;2.45;;
19587;SDS011;9940;47.252;8.696;2023-03-19T16:05:44;3.78;;;2.83;;
19587;SDS011;9940;47.252;8.696;2023-03-19T16:08:24;4.93;;;2.80;;
19587;SDS011;9940;47.252;8.696;2023-03-19T16:10:53;5.97;;;3.05;;
19587;SDS011;9940;47.252;8.696;2023-03-19T16:13:25;6.18;;;2.60;;
19587;SDS011;9940;47.252;8.696;2023-03-19T16:18:26;5.45;;;3.10;;
19587;SDS011;9940;47.252;8.696;2023-03-19T16:23:44;5.25;;;2.55;;
19587;SDS011;9940;47.252;8.696;2023-03-19T16:26:19;4.65;;;2.58;;
19587;SDS011;9940;47.252;8.696;2023-03-19T16:29:33;5.00;;;2.92;;
19587;SDS011;9940;47.252;8.696;2023-03-19T16:31:47;4.28;;;2.67;;
19587;SDS011;9940;47.252;8.696;2023-03-19T16:36:55;3.83;;;2.83;;
19587;SDS011;9940;47.252;8.696;2023-03-19T16:44:40;2.72;;;2.20;;
19587;SDS011;9940;47.252;8.696;2023-03-19T16:47:10;3.53;;;2.72;;
19587;SDS011;9940;47.252;8.696;2023-03-19T16:49:37;2.85;;;2.40;;
19587;SDS011;9940;47.252;8.696;2023-03-19T16:52:05;5.35;;;2.90;;
19587;SDS011;9940;47.252;8.696;2023-03-19T16:54:44;4.60;;;3.22;;
19587;SDS011;9940;47.252;8.696;2023-03-19T16:57:15;6.95;;;3.35;;
19587;SDS011;9940;47.252;8.696;2023-03-19T16:59:42;7.32;;;4.43;;
19587;SDS011;9940;47.252;8.696;2023-03-19T17:02:13;5.70;;;4.07;;
19587;SDS011;9940;47.252;8.696;2023-03-19T17:04:40;4.90;;;3.28;;
19587;SDS011;9940;47.252;8.696;2023-03-19T17:07:09;5.63;;;2.80;;
19587;SDS011;9940;47.252;8.696;2023-03-19T17:09:37;5.00;;;3.30;;
19587;SDS011;9940;47.252;8.696;2023-03-19T17:12:04;4.38;;;2.90;;
19587;SDS011;9940;47.252;8.696;2023-03-19T17:14:33;3.67;;;2.72;;
19587;SDS011;9940;47.252;8.696;2023-03-19T17:17:00;5.00;;;3.58;;
19587;SDS011;9940;47.252;8.696;2023-03-19T17:19:34;3.95;;;2.85;;
19587;SDS011;9940;47.252;8.696;2023-03-19T17:22:03;4.45;;;3.20;;
19587;SDS011;9940;47.252;8.696;2023-03-19T17:26:59;2.97;;;2.38;;
19587;SDS011;9940;47.252;8.696;2023-03-19T17:29:27;3.13;;;2.45;;
19587;SDS011;9940;47.252;8.696;2023-03-19T17:31:54;4.45;;;2.78;;
19587;SDS011;9940;47.252;8.696;2023-03-19T17:34:22;2.97;;;2.40;;
19587;SDS011;9940;47.252;8.696;2023-03-19T17:36:51;3.78;;;2.47;;
19587;SDS011;9940;47.252;8.696;2023-03-19T17:39:17;3.50;;;2.28;;
19587;SDS011;9940;47.252;8.696;2023-03-19T17:41:46;3.00;;;2.30;;
19587;SDS011;9940;47.252;8.696;2023-03-19T17:44:12;3.90;;;2.08;;
19587;SDS011;9940;47.252;8.696;2023-03-19T17:46:39;1.90;;;1.67;;
19587;SDS011;9940;47.252;8.696;2023-03-19T17:49:14;3.00;;;2.22;;